sensor_id;sensor_type;location;lat;lon;timestamp;pressure;altitude;pressure_sealevel;temperature;humidity
41264;BME280;26998;48.714;9.414;2023-05-19T00:01:50;99224.75;;;12.47;100.00
41264;BME280;26998;48.714;9.414;2023-05-19T00:04:17;99227.81;;;12.44;100.00
41264;BME280;26998;48.714;9.414;2023-05-19T00:06:49;99231.53;;;12.43;100.00
41264;BME280;26998;48.714;9.414;2023-05-19T00:09:16;99227.81;;;12.37;100.00
41264;BME280;26998;48.714;9.414;2023-05-19T00:11:43;99227.38;;;12.34;100.00
41264;BME280;26998;48.714;9.414;2023-05-19T00:14:10;99229.22;;;12.33;100.00
41264;BME280;26998;48.714;9.414;2023-05-19T00:16:37;99237.03;;;12.28;100.00
41264;BME280;26998;48.714;9.414;2023-05-19T00:19:05;99228.38;;;12.26;100.00
41264;BME280;26998;48.714;9.414;2023-05-19T00:21:34;99216.03;;;12.38;100.00
41264;BME280;26998;48.714;9.414;2023-05-19T00:24:01;99221.56;;;12.30;100.00
41264;BME280;26998;48.714;9.414;2023-05-19T00:26:28;99221.53;;;12.23;100.00
41264;BME280;26998;48.714;9.414;2023-05-19T00:28:55;99217.94;;;12.44;100.00
41264;BME280;26998;48.714;9.414;2023-05-19T00:31:22;99219.38;;;12.40;100.00
41264;BME280;26998;48.714;9.414;2023-05-19T00:33:48;99218.50;;;12.33;100.00
41264;BME280;26998;48.714;9.414;2023-05-19T00:36:15;99219.94;;;12.29;100.00
41264;BME280;26998;48.714;9.414;2023-05-19T00:38:41;99225.91;;;12.24;100.00
41264;BME280;26998;48.714;9.414;2023-05-19T00:41:08;99224.00;;;12.18;100.00
41264;BME280;26998;48.714;9.414;2023-05-19T00:43:35;99222.59;;;12.22;100.00
41264;BME280;26998;48.714;9.414;2023-05-19T00:46:02;99231.28;;;12.31;100.00
41264;BME280;26998;48.714;9.414;2023-05-19T00:48:29;99228.38;;;12.26;100.00
41264;BME280;26998;48.714;9.414;2023-05-19T00:50:56;99242.78;;;12.18;100.00
41264;BME280;26998;48.714;9.414;2023-05-19T00:53:23;99242.53;;;12.13;100.00
41264;BME280;26998;48.714;9.414;2023-05-19T00:55:50;99237.19;;;12.20;100.00
41264;BME280;26998;48.714;9.414;2023-05-19T00:58:17;99233.38;;;12.42;100.00
41264;BME280;26998;48.714;9.414;2023-05-19T01:00:44;99234.28;;;12.15;100.00
41264;BME280;26998;48.714;9.414;2023-05-19T01:03:12;99231.41;;;12.16;100.00
41264;BME280;26998;48.714;9.414;2023-05-19T01:05:42;99239.03;;;12.13;100.00
41264;BME280;26998;48.714;9.414;2023-05-19T01:08:09;99233.81;;;12.05;100.00
41264;BME280;26998;48.714;9.414;2023-05-19T01:10:36;99227.25;;;12.07;100.00
41264;BME280;26998;48.714;9.414;2023-05-19T01:13:03;99233.81;;;12.05;100.00
41264;BME280;26998;48.714;9.414;2023-05-19T01:15:37;99247.00;;;11.99;100.00
41264;BME280;26998;48.714;9.414;2023-05-19T01:18:13;99240.59;;;11.94;100.00
41264;BME280;26998;48.714;9.414;2023-05-19T01:20:45;99231.34;;;12.03;100.00
41264;BME280;26998;48.714;9.414;2023-05-19T01:31:45;99256.63;;;11.87;100.00
41264;BME280;26998;48.714;9.414;2023-05-19T01:34:12;99260.88;;;11.82;100.00
41264;BME280;26998;48.714;9.414;2023-05-19T01:36:40;99267.69;;;11.84;100.00
41264;BME280;26998;48.714;9.414;2023-05-19T01:39:07;99278.88;;;11.88;100.00
41264;BME280;26998;48.714;9.414;2023-05-19T01:41:34;99269.38;;;11.85;100.00
41264;BME280;26998;48.714;9.414;2023-05-19T01:44:02;99265.25;;;11.89;100.00
41264;BME280;26998;48.714;9.414;2023-05-19T01:46:29;99265.66;;;11.86;100.00
41264;BME280;26998;48.714;9.414;2023-05-19T01:48:56;99264.66;;;11.87;100.00
41264;BME280;26998;48.714;9.414;2023-05-19T01:51:23;99247.25;;;12.11;100.00
41264;BME280;26998;48.714;9.414;2023-05-19T01:53:50;99240.69;;;12.14;100.00
41264;BME280;26998;48.714;9.414;2023-05-19T01:56:30;99255.19;;;11.91;100.00
41264;BME280;26998;48.714;9.414;2023-05-19T01:59:03;99254.88;;;11.79;100.00
41264;BME280;26998;48.714;9.414;2023-05-19T02:01:44;99260.81;;;11.75;100.00
41264;BME280;26998;48.714;9.414;2023-05-19T02:04:27;99262.03;;;11.72;100.00
41264;BME280;26998;48.714;9.414;2023-05-19T02:10:22;99258.81;;;11.55;100.00
41264;BME280;26998;48.714;9.414;2023-05-19T02:12:52;99263.94;;;11.50;100.00
41264;BME280;26998;48.714;9.414;2023-05-19T02:15:28;99264.13;;;11.49;100.00
41264;BME280;26998;48.714;9.414;2023-05-19T02:17:56;99265.75;;;11.43;100.00
41264;BME280;26998;48.714;9.414;2023-05-19T02:20:24;99277.59;;;11.34;100.00
41264;BME280;26998;48.714;9.414;2023-05-19T02:22:51;99280.44;;;11.32;100.00
41264;BME280;26998;48.714;9.414;2023-05-19T02:25:18;99282.19;;;11.40;100.00
41264;BME280;26998;48.714;9.414;2023-05-19T02:27:45;99271.00;;;11.37;100.00
41264;BME280;26998;48.714;9.414;2023-05-19T02:30:12;99255.13;;;11.56;100.00
41264;BME280;26998;48.714;9.414;2023-05-19T02:32:38;99252.84;;;11.53;100.00
41264;BME280;26998;48.714;9.414;2023-05-19T02:35:05;99255.03;;;11.43;100.00
41264;BME280;26998;48.714;9.414;2023-05-19T02:37:32;99248.41;;;11.39;100.00
41264;BME280;26998;48.714;9.414;2023-05-19T02:39:59;99239.63;;;11.52;100.00
41264;BME280;26998;48.714;9.414;2023-05-19T02:42:25;99251.84;;;11.33;100.00
41264;BME280;26998;48.714;9.414;2023-05-19T02:44:53;99259.56;;;11.21;100.00
41264;BME280;26998;48.714;9.414;2023-05-19T02:47:20;99270.19;;;11.15;100.00
41264;BME280;26998;48.714;9.414;2023-05-19T02:49:47;99277.78;;;11.11;100.00
41264;BME280;26998;48.714;9.414;2023-05-19T02:52:13;99280.03;;;11.07;100.00
41264;BME280;26998;48.714;9.414;2023-05-19T02:54:40;99294.41;;;11.06;100.00
41264;BME280;26998;48.714;9.414;2023-05-19T02:57:06;99291.75;;;11.06;100.00
41264;BME280;26998;48.714;9.414;2023-05-19T02:59:33;99287.78;;;11.02;100.00
41264;BME280;26998;48.714;9.414;2023-05-19T03:02:00;99292.06;;;10.97;100.00
41264;BME280;26998;48.714;9.414;2023-05-19T03:04:28;99286.50;;;10.98;100.00
41264;BME280;26998;48.714;9.414;2023-05-19T03:06:55;99286.50;;;10.98;100.00
41264;BME280;26998;48.714;9.414;2023-05-19T03:09:22;99281.16;;;10.98;100.00
41264;BME280;26998;48.714;9.414;2023-05-19T03:11:49;99296.50;;;10.90;100.00
41264;BME280;26998;48.714;9.414;2023-05-19T03:14:15;99291.50;;;10.86;100.00
41264;BME280;26998;48.714;9.414;2023-05-19T03:16:42;99302.16;;;10.80;100.00
41264;BME280;26998;48.714;9.414;2023-05-19T03:19:09;99315.06;;;10.76;100.00
41264;BME280;26998;48.714;9.414;2023-05-19T03:21:36;99312.38;;;10.76;100.00
41264;BME280;26998;48.714;9.414;2023-05-19T03:24:02;99304.38;;;10.76;100.00
41264;BME280;26998;48.714;9.414;2023-05-19T03:26:29;99309.44;;;10.71;100.00
41264;BME280;26998;48.714;9.414;2023-05-19T03:28:56;99322.63;;;10.73;100.00
41264;BME280;26998;48.714;9.414;2023-05-19T03:31:23;99317.22;;;10.66;100.00
41264;BME280;26998;48.714;9.414;2023-05-19T03:33:50;99326.22;;;10.65;100.00
41264;BME280;26998;48.714;9.414;2023-05-19T03:36:18;99337.56;;;10.67;100.00
41264;BME280;26998;48.714;9.414;2023-05-19T03:38:44;99344.56;;;10.68;100.00
41264;BME280;26998;48.714;9.414;2023-05-19T03:41:12;99340.06;;;10.69;100.00
41264;BME280;26998;48.714;9.414;2023-05-19T03:43:38;99331.41;;;10.67;100.00
41264;BME280;26998;48.714;9.414;2023-05-19T03:46:05;99335.72;;;10.68;100.00
41264;BME280;26998;48.714;9.414;2023-05-19T03:48:32;99335.56;;;10.69;100.00
41264;BME280;26998;48.714;9.414;2023-05-19T03:50:58;99336.53;;;10.68;100.00
41264;BME280;26998;48.714;9.414;2023-05-19T03:53:25;99335.72;;;10.68;100.00
41264;BME280;26998;48.714;9.414;2023-05-19T03:55:52;99346.03;;;10.71;100.00
41264;BME280;26998;48.714;9.414;2023-05-19T03:58:18;99350.03;;;10.75;100.00
41264;BME280;26998;48.714;9.414;2023-05-19T04:00:45;99352.69;;;10.75;100.00
41264;BME280;26998;48.714;9.414;2023-05-19T04:03:12;99359.78;;;10.68;100.00
41264;BME280;26998;48.714;9.414;2023-05-19T04:05:39;99360.97;;;10.65;100.00
41264;BME280;26998;48.714;9.414;2023-05-19T04:08:05;99374.72;;;10.62;100.00
41264;BME280;26998;48.714;9.414;2023-05-19T04:10:33;99373.72;;;10.63;100.00
41264;BME280;26998;48.714;9.414;2023-05-19T04:13:00;99386.25;;;10.62;100.00
41264;BME280;26998;48.714;9.414;2023-05-19T04:15:26;99385.41;;;10.62;100.00
41264;BME280;26998;48.714;9.414;2023-05-19T04:17:54;99382.09;;;10.60;100.00
41264;BME280;26998;48.714;9.414;2023-05-19T04:20:21;99379.88;;;10.63;100.00
41264;BME280;26998;48.714;9.414;2023-05-19T04:22:48;99389.09;;;10.61;100.00
41264;BME280;26998;48.714;9.414;2023-05-19T04:25:14;99381.53;;;10.64;100.00
41264;BME280;26998;48.714;9.414;2023-05-19T04:27:41;99386.06;;;10.64;100.00
41264;BME280;26998;48.714;9.414;2023-05-19T04:30:08;99383.84;;;10.68;100.00
41264;BME280;26998;48.714;9.414;2023-05-19T04:32:35;99386.59;;;10.74;100.00
41264;BME280;26998;48.714;9.414;2023-05-19T04:35:02;99370.94;;;10.71;100.00
41264;BME280;26998;48.714;9.414;2023-05-19T04:37:30;99371.28;;;10.83;100.00
41264;BME280;26998;48.714;9.414;2023-05-19T04:39:57;99369.88;;;10.87;100.00
41264;BME280;26998;48.714;9.414;2023-05-19T04:42:23;99370.63;;;10.96;100.00
41264;BME280;26998;48.714;9.414;2023-05-19T04:44:50;99375.59;;;10.99;100.00
41264;BME280;26998;48.714;9.414;2023-05-19T04:47:17;99363.16;;;10.91;100.00
41264;BME280;26998;48.714;9.414;2023-05-19T04:49:43;99374.22;;;11.03;100.00
41264;BME280;26998;48.714;9.414;2023-05-19T04:52:10;99364.47;;;11.17;100.00
41264;BME280;26998;48.714;9.414;2023-05-19T04:54:37;99351.22;;;11.30;100.00
41264;BME280;26998;48.714;9.414;2023-05-19T04:57:04;99341.06;;;11.40;100.00
41264;BME280;26998;48.714;9.414;2023-05-19T04:59:31;99332.09;;;11.76;100.00
41264;BME280;26998;48.714;9.414;2023-05-19T05:01:58;99308.78;;;11.98;100.00
41264;BME280;26998;48.714;9.414;2023-05-19T05:04:24;99300.72;;;11.91;100.00
41264;BME280;26998;48.714;9.414;2023-05-19T05:06:51;99279.91;;;12.28;100.00
41264;BME280;26998;48.714;9.414;2023-05-19T05:09:18;99270.88;;;12.36;100.00
41264;BME280;26998;48.714;9.414;2023-05-19T05:11:45;99271.09;;;12.34;100.00
41264;BME280;26998;48.714;9.414;2023-05-19T05:14:11;99270.88;;;12.36;100.00
41264;BME280;26998;48.714;9.414;2023-05-19T05:16:38;99250.78;;;12.66;100.00
41264;BME280;26998;48.714;9.414;2023-05-19T05:19:05;99241.75;;;12.74;100.00
41264;BME280;26998;48.714;9.414;2023-05-19T05:21:32;99238.50;;;13.18;100.00
41264;BME280;26998;48.714;9.414;2023-05-19T05:23:59;99228.00;;;13.44;100.00
41264;BME280;26998;48.714;9.414;2023-05-19T05:26:29;99207.06;;;13.99;100.00
41264;BME280;26998;48.714;9.414;2023-05-19T05:28:56;99192.72;;;14.95;100.00
41264;BME280;26998;48.714;9.414;2023-05-19T05:31:23;99188.91;;;14.32;100.00
41264;BME280;26998;48.714;9.414;2023-05-19T05:33:49;99183.63;;;15.21;100.00
41264;BME280;26998;48.714;9.414;2023-05-19T05:36:16;99180.03;;;16.44;93.75
41264;BME280;26998;48.714;9.414;2023-05-19T05:38:43;99174.22;;;16.10;97.60
41264;BME280;26998;48.714;9.414;2023-05-19T05:41:10;99176.16;;;16.22;95.18
41264;BME280;26998;48.714;9.414;2023-05-19T05:43:36;99178.03;;;16.39;95.27
41264;BME280;26998;48.714;9.414;2023-05-19T05:46:03;99181.69;;;17.88;82.96
41264;BME280;26998;48.714;9.414;2023-05-19T05:48:31;99182.72;;;16.74;85.77
41264;BME280;26998;48.714;9.414;2023-05-19T05:50:58;99189.25;;;16.36;89.56
41264;BME280;26998;48.714;9.414;2023-05-19T05:53:29;99182.63;;;15.40;97.13
41264;BME280;26998;48.714;9.414;2023-05-19T05:55:56;99174.72;;;16.37;94.23
41264;BME280;26998;48.714;9.414;2023-05-19T05:58:22;99180.31;;;16.06;95.00
41264;BME280;26998;48.714;9.414;2023-05-19T06:00:49;99174.69;;;16.56;91.33
41264;BME280;26998;48.714;9.414;2023-05-19T06:03:18;99182.72;;;17.04;84.41
41264;BME280;26998;48.714;9.414;2023-05-19T06:05:46;99185.47;;;15.70;96.22
41264;BME280;26998;48.714;9.414;2023-05-19T06:08:13;99171.66;;;16.64;89.46
41264;BME280;26998;48.714;9.414;2023-05-19T06:10:40;99179.63;;;16.89;87.68
41264;BME280;26998;48.714;9.414;2023-05-19T06:13:07;99169.53;;;16.66;87.86
41264;BME280;26998;48.714;9.414;2023-05-19T06:15:33;99181.28;;;16.90;86.37
41264;BME280;26998;48.714;9.414;2023-05-19T06:18:00;99186.91;;;16.58;89.03
41264;BME280;26998;48.714;9.414;2023-05-19T06:20:27;99187.25;;;16.13;87.49
41264;BME280;26998;48.714;9.414;2023-05-19T06:22:55;99189.47;;;16.35;90.54
41264;BME280;26998;48.714;9.414;2023-05-19T06:25:22;99180.25;;;16.73;82.88
41264;BME280;26998;48.714;9.414;2023-05-19T06:27:48;99184.56;;;15.08;95.09
41264;BME280;26998;48.714;9.414;2023-05-19T06:30:15;99179.00;;;15.03;96.65
41264;BME280;26998;48.714;9.414;2023-05-19T06:32:42;99165.44;;;14.60;100.00
41264;BME280;26998;48.714;9.414;2023-05-19T06:35:08;99180.25;;;13.72;100.00
41264;BME280;26998;48.714;9.414;2023-05-19T06:37:35;99179.41;;;13.78;100.00
41264;BME280;26998;48.714;9.414;2023-05-19T06:40:02;99183.94;;;13.84;100.00
41264;BME280;26998;48.714;9.414;2023-05-19T06:42:29;99182.69;;;13.87;100.00
41264;BME280;26998;48.714;9.414;2023-05-19T06:44:55;99187.91;;;13.69;100.00
41264;BME280;26998;48.714;9.414;2023-05-19T06:47:22;99195.75;;;13.57;100.00
41264;BME280;26998;48.714;9.414;2023-05-19T06:49:49;99196.63;;;13.37;100.00
41264;BME280;26998;48.714;9.414;2023-05-19T06:52:17;99188.09;;;13.67;100.00
41264;BME280;26998;48.714;9.414;2023-05-19T06:54:43;99190.06;;;13.98;100.00
41264;BME280;26998;48.714;9.414;2023-05-19T06:57:11;99184.72;;;14.05;100.00
41264;BME280;26998;48.714;9.414;2023-05-19T06:59:37;99187.94;;;14.20;100.00
41264;BME280;26998;48.714;9.414;2023-05-19T07:02:04;99190.50;;;14.47;100.00
41264;BME280;26998;48.714;9.414;2023-05-19T07:04:31;99190.94;;;14.82;100.00
41264;BME280;26998;48.714;9.414;2023-05-19T07:06:57;99184.72;;;13.92;100.00
41264;BME280;26998;48.714;9.414;2023-05-19T07:09:24;99195.56;;;13.58;100.00
41264;BME280;26998;48.714;9.414;2023-05-19T07:11:51;99182.63;;;14.07;100.00
41264;BME280;26998;48.714;9.414;2023-05-19T07:14:18;99193.22;;;13.82;100.00
41264;BME280;26998;48.714;9.414;2023-05-19T07:16:44;99186.50;;;14.11;100.00
41264;BME280;26998;48.714;9.414;2023-05-19T07:19:11;99190.25;;;14.10;100.00
41264;BME280;26998;48.714;9.414;2023-05-19T07:21:38;99198.97;;;14.05;100.00
41264;BME280;26998;48.714;9.414;2023-05-19T07:24:05;99188.69;;;13.82;100.00
41264;BME280;26998;48.714;9.414;2023-05-19T07:26:32;99190.06;;;13.98;100.00
41264;BME280;26998;48.714;9.414;2023-05-19T07:28:58;99190.28;;;14.03;100.00
41264;BME280;26998;48.714;9.414;2023-05-19T07:31:25;99184.53;;;13.80;100.00
41264;BME280;26998;48.714;9.414;2023-05-19T07:33:52;99189.38;;;13.65;100.00
41264;BME280;26998;48.714;9.414;2023-05-19T07:36:20;99184.78;;;13.72;100.00
41264;BME280;26998;48.714;9.414;2023-05-19T07:38:47;99180.88;;;13.61;100.00
41264;BME280;26998;48.714;9.414;2023-05-19T07:41:13;99180.66;;;13.76;100.00
41264;BME280;26998;48.714;9.414;2023-05-19T07:43:41;99173.16;;;13.91;100.00
41264;BME280;26998;48.714;9.414;2023-05-19T07:46:08;99173.97;;;13.98;100.00
41264;BME280;26998;48.714;9.414;2023-05-19T07:48:34;99174.31;;;14.15;100.00
41264;BME280;26998;48.714;9.414;2023-05-19T07:51:01;99174.81;;;13.99;100.00
41264;BME280;26998;48.714;9.414;2023-05-19T07:53:27;99170.84;;;14.46;100.00
41264;BME280;26998;48.714;9.414;2023-05-19T07:55:55;99175.56;;;14.13;100.00
41264;BME280;26998;48.714;9.414;2023-05-19T07:58:24;99173.19;;;13.84;100.00
41264;BME280;26998;48.714;9.414;2023-05-19T08:00:51;99176.50;;;13.86;100.00
41264;BME280;26998;48.714;9.414;2023-05-19T08:03:17;99172.28;;;14.04;100.00
41264;BME280;26998;48.714;9.414;2023-05-19T08:05:44;99177.91;;;14.41;100.00
41264;BME280;26998;48.714;9.414;2023-05-19T08:08:11;99166.34;;;13.89;100.00
41264;BME280;26998;48.714;9.414;2023-05-19T08:10:38;99166.56;;;14.32;100.00
41264;BME280;26998;48.714;9.414;2023-05-19T08:13:06;99161.28;;;14.19;100.00
41264;BME280;26998;48.714;9.414;2023-05-19T08:15:33;99161.06;;;14.65;100.00
41264;BME280;26998;48.714;9.414;2023-05-19T08:18:00;99156.44;;;14.34;100.00
41264;BME280;26998;48.714;9.414;2023-05-19T08:20:27;99157.84;;;14.05;100.00
41264;BME280;26998;48.714;9.414;2023-05-19T08:22:54;99155.06;;;14.18;100.00
41264;BME280;26998;48.714;9.414;2023-05-19T08:25:20;99157.03;;;14.43;100.00
41264;BME280;26998;48.714;9.414;2023-05-19T08:27:47;99157.84;;;14.05;100.00
41264;BME280;26998;48.714;9.414;2023-05-19T08:30:14;99150.47;;;14.25;100.00
41264;BME280;26998;48.714;9.414;2023-05-19T08:32:41;99154.75;;;14.40;100.00
41264;BME280;26998;48.714;9.414;2023-05-19T08:35:08;99148.38;;;14.72;100.00
41264;BME280;26998;48.714;9.414;2023-05-19T08:37:35;99142.56;;;14.75;100.00
41264;BME280;26998;48.714;9.414;2023-05-19T08:40:02;99145.81;;;14.84;100.00
41264;BME280;26998;48.714;9.414;2023-05-19T08:42:29;99143.44;;;14.69;100.00
41264;BME280;26998;48.714;9.414;2023-05-19T08:44:55;99132.09;;;14.22;100.00
41264;BME280;26998;48.714;9.414;2023-05-19T08:47:22;99141.25;;;14.53;100.00
41264;BME280;26998;48.714;9.414;2023-05-19T08:49:51;99137.81;;;14.39;100.00
41264;BME280;26998;48.714;9.414;2023-05-19T08:52:26;99143.75;;;14.79;100.00
41264;BME280;26998;48.714;9.414;2023-05-19T08:55:54;99139.91;;;14.30;100.00
41264;BME280;26998;48.714;9.414;2023-05-19T08:58:02;99151.25;;;14.77;100.00
41264;BME280;26998;48.714;9.414;2023-05-19T09:00:29;99146.16;;;14.63;100.00
41264;BME280;26998;48.714;9.414;2023-05-19T09:02:57;99138.47;;;15.41;96.11
41264;BME280;26998;48.714;9.414;2023-05-19T09:05:37;99142.94;;;14.79;99.35
41264;BME280;26998;48.714;9.414;2023-05-19T09:08:04;99139.56;;;14.90;99.98
41264;BME280;26998;48.714;9.414;2023-05-19T09:10:31;99139.34;;;14.60;100.00
41264;BME280;26998;48.714;9.414;2023-05-19T09:12:57;99136.88;;;14.90;98.92
41264;BME280;26998;48.714;9.414;2023-05-19T09:15:26;99137.50;;;14.86;96.81
41264;BME280;26998;48.714;9.414;2023-05-19T09:18:23;99131.91;;;14.62;100.00
41264;BME280;26998;48.714;9.414;2023-05-19T09:20:50;99128.72;;;14.72;100.00
41264;BME280;26998;48.714;9.414;2023-05-19T09:23:22;99123.47;;;14.84;100.00
41264;BME280;26998;48.714;9.414;2023-05-19T09:25:49;99124.22;;;14.27;100.00
41264;BME280;26998;48.714;9.414;2023-05-19T09:28:29;99122.25;;;14.09;100.00
41264;BME280;26998;48.714;9.414;2023-05-19T09:31:07;99133.69;;;14.37;100.00
41264;BME280;26998;48.714;9.414;2023-05-19T09:33:38;99126.34;;;14.19;100.00
41264;BME280;26998;48.714;9.414;2023-05-19T09:36:08;99136.25;;;14.18;100.00
41264;BME280;26998;48.714;9.414;2023-05-19T09:38:35;99132.81;;;14.43;100.00
41264;BME280;26998;48.714;9.414;2023-05-19T09:41:06;99126.91;;;14.27;100.00
41264;BME280;26998;48.714;9.414;2023-05-19T09:43:33;99129.56;;;14.34;100.00
41264;BME280;26998;48.714;9.414;2023-05-19T09:46:05;99129.16;;;14.30;100.00
41264;BME280;26998;48.714;9.414;2023-05-19T09:48:35;99131.97;;;14.42;100.00
41264;BME280;26998;48.714;9.414;2023-05-19T09:51:06;99124.38;;;14.32;100.00
41264;BME280;26998;48.714;9.414;2023-05-19T09:53:33;99115.63;;;14.44;100.00
41264;BME280;26998;48.714;9.414;2023-05-19T09:56:01;99119.53;;;14.48;100.00
41264;BME280;26998;48.714;9.414;2023-05-19T09:58:32;99114.97;;;14.48;100.00
41264;BME280;26998;48.714;9.414;2023-05-19T10:01:00;99110.16;;;14.64;100.00
41264;BME280;26998;48.714;9.414;2023-05-19T10:03:27;99122.63;;;14.58;100.00
41264;BME280;26998;48.714;9.414;2023-05-19T10:05:57;99117.91;;;14.78;100.00
41264;BME280;26998;48.714;9.414;2023-05-19T10:08:27;99115.06;;;14.98;99.26
41264;BME280;26998;48.714;9.414;2023-05-19T10:10:54;99117.03;;;15.10;100.00
41264;BME280;26998;48.714;9.414;2023-05-19T10:13:22;99117.47;;;14.82;99.26
41264;BME280;26998;48.714;9.414;2023-05-19T10:15:51;99111.88;;;14.51;100.00
41264;BME280;26998;48.714;9.414;2023-05-19T10:18:21;99113.56;;;14.52;100.00
41264;BME280;26998;48.714;9.414;2023-05-19T10:20:48;99114.91;;;14.23;100.00
41264;BME280;26998;48.714;9.414;2023-05-19T10:23:17;99119.97;;;14.45;100.00
41264;BME280;26998;48.714;9.414;2023-05-19T10:25:45;99120.72;;;14.27;100.00
41264;BME280;26998;48.714;9.414;2023-05-19T10:28:15;99122.78;;;14.25;100.00
41264;BME280;26998;48.714;9.414;2023-05-19T10:30:45;99122.63;;;14.51;100.00
41264;BME280;26998;48.714;9.414;2023-05-19T10:33:17;99122.06;;;14.43;100.00
41264;BME280;26998;48.714;9.414;2023-05-19T10:38:44;99112.91;;;14.50;100.00
41264;BME280;26998;48.714;9.414;2023-05-19T10:46:25;99112.41;;;14.92;99.46
41264;BME280;26998;48.714;9.414;2023-05-19T10:48:52;99109.19;;;15.08;98.90
41264;BME280;26998;48.714;9.414;2023-05-19T10:51:19;99112.91;;;14.50;98.32
41264;BME280;26998;48.714;9.414;2023-05-19T10:53:46;99114.69;;;14.63;100.00
41264;BME280;26998;48.714;9.414;2023-05-19T10:56:27;99103.75;;;14.90;98.42
41264;BME280;26998;48.714;9.414;2023-05-19T10:58:54;99110.16;;;14.89;98.41
41264;BME280;26998;48.714;9.414;2023-05-19T11:01:20;99106.31;;;14.53;100.00
41264;BME280;26998;48.714;9.414;2023-05-19T11:03:52;99106.94;;;14.42;100.00
41264;BME280;26998;48.714;9.414;2023-05-19T11:08:51;99106.41;;;14.26;100.00
41264;BME280;26998;48.714;9.414;2023-05-19T11:11:21;99105.88;;;14.56;100.00
41264;BME280;26998;48.714;9.414;2023-05-19T11:13:53;99108.69;;;14.93;98.09
41264;BME280;26998;48.714;9.414;2023-05-19T11:16:30;99110.38;;;14.62;99.72
41264;BME280;26998;48.714;9.414;2023-05-19T11:18:58;99111.09;;;14.76;100.00
41264;BME280;26998;48.714;9.414;2023-05-19T11:21:41;99102.19;;;15.44;95.31
41264;BME280;26998;48.714;9.414;2023-05-19T11:24:08;99106.44;;;15.15;94.89
41264;BME280;26998;48.714;9.414;2023-05-19T11:26:39;99105.44;;;15.09;97.45
41264;BME280;26998;48.714;9.414;2023-05-19T11:29:06;99096.56;;;15.27;96.41
41264;BME280;26998;48.714;9.414;2023-05-19T11:31:34;99105.56;;;14.96;96.82
41264;BME280;26998;48.714;9.414;2023-05-19T11:34:03;99105.63;;;14.64;99.93
41264;BME280;26998;48.714;9.414;2023-05-19T11:36:30;99106.66;;;14.88;99.83
41264;BME280;26998;48.714;9.414;2023-05-19T11:38:58;99107.47;;;14.89;99.29
41264;BME280;26998;48.714;9.414;2023-05-19T11:41:28;99104.31;;;14.98;99.07
41264;BME280;26998;48.714;9.414;2023-05-19T11:43:55;99102.91;;;15.14;98.17
41264;BME280;26998;48.714;9.414;2023-05-19T11:46:21;99107.97;;;15.04;98.59
41264;BME280;26998;48.714;9.414;2023-05-19T11:48:48;99106.81;;;14.93;98.95
41264;BME280;26998;48.714;9.414;2023-05-19T11:51:15;99106.66;;;14.88;99.66
41264;BME280;26998;48.714;9.414;2023-05-19T11:53:42;99100.75;;;14.73;100.00
41264;BME280;26998;48.714;9.414;2023-05-19T11:56:11;99103.69;;;14.96;99.48
41264;BME280;26998;48.714;9.414;2023-05-19T11:58:38;99094.53;;;15.22;96.73
41264;BME280;26998;48.714;9.414;2023-05-19T12:01:05;99089.84;;;14.93;100.00
41264;BME280;26998;48.714;9.414;2023-05-19T12:03:32;99091.72;;;15.54;95.08
41264;BME280;26998;48.714;9.414;2023-05-19T12:06:02;99089.25;;;15.53;94.94
41264;BME280;26998;48.714;9.414;2023-05-19T12:08:29;99084.28;;;15.13;99.89
41264;BME280;26998;48.714;9.414;2023-05-19T12:10:59;99091.59;;;15.49;96.97
41264;BME280;26998;48.714;9.414;2023-05-19T12:13:27;99095.41;;;15.78;94.38
41264;BME280;26998;48.714;9.414;2023-05-19T12:15:58;99091.38;;;15.07;98.66
41264;BME280;26998;48.714;9.414;2023-05-19T12:18:28;99090.75;;;15.30;97.49
41264;BME280;26998;48.714;9.414;2023-05-19T12:20:55;99094.13;;;15.00;98.96
41264;BME280;26998;48.714;9.414;2023-05-19T12:23:22;99090.69;;;15.37;96.32
41264;BME280;26998;48.714;9.414;2023-05-19T12:25:50;99088.41;;;15.15;97.93
41264;BME280;26998;48.714;9.414;2023-05-19T12:28:21;99091.38;;;15.07;99.27
41264;BME280;26998;48.714;9.414;2023-05-19T12:30:49;99095.97;;;15.25;96.70
41264;BME280;26998;48.714;9.414;2023-05-19T12:33:17;99093.47;;;15.05;98.34
41264;BME280;26998;48.714;9.414;2023-05-19T12:35:44;99102.56;;;15.04;96.54
41264;BME280;26998;48.714;9.414;2023-05-19T12:38:13;99097.94;;;15.36;95.48
41264;BME280;26998;48.714;9.414;2023-05-19T12:40:44;99099.19;;;15.34;96.00
41264;BME280;26998;48.714;9.414;2023-05-19T12:43:20;99091.72;;;15.17;97.57
41264;BME280;26998;48.714;9.414;2023-05-19T12:45:48;99101.66;;;14.92;99.30
41264;BME280;26998;48.714;9.414;2023-05-19T12:48:17;99105.56;;;14.96;100.00
41264;BME280;26998;48.714;9.414;2023-05-19T12:50:47;99102.03;;;15.20;98.21
41264;BME280;26998;48.714;9.414;2023-05-19T12:53:14;99101.75;;;15.04;99.61
41264;BME280;26998;48.714;9.414;2023-05-19T12:55:42;99097.13;;;15.11;99.06
41264;BME280;26998;48.714;9.414;2023-05-19T12:58:14;99091.75;;;15.11;99.08
41264;BME280;26998;48.714;9.414;2023-05-19T13:00:43;99085.94;;;14.89;100.00
41264;BME280;26998;48.714;9.414;2023-05-19T13:05:42;99094.31;;;14.81;100.00
41264;BME280;26998;48.714;9.414;2023-05-19T13:08:11;99094.69;;;14.84;100.00
41264;BME280;26998;48.714;9.414;2023-05-19T13:10:40;99092.25;;;14.76;99.89
41264;BME280;26998;48.714;9.414;2023-05-19T13:13:09;99086.59;;;15.09;98.11
41264;BME280;26998;48.714;9.414;2023-05-19T13:15:38;99088.09;;;15.05;99.70
41264;BME280;26998;48.714;9.414;2023-05-19T13:18:08;99083.03;;;15.34;97.57
41264;BME280;26998;48.714;9.414;2023-05-19T13:20:36;99077.75;;;15.45;97.25
41264;BME280;26998;48.714;9.414;2023-05-19T13:23:03;99078.13;;;15.86;96.24